sensor_id;sensor_type;location;lat;lon;timestamp;P1;durP1;ratioP1;P2;durP2;ratioP2
84288;SDS011;75147;50.294;18.660;2024-01-30T00:02:16;22.35;;;9.43;;
84288;SDS011;75147;50.294;18.660;2024-01-30T00:04:42;19.40;;;9.48;;
84288;SDS011;75147;50.294;18.660;2024-01-30T00:07:07;24.52;;;10.50;;
84288;SDS011;75147;50.294;18.660;2024-01-30T00:09:33;20.17;;;10.10;;
84288;SDS011;75147;50.294;18.660;2024-01-30T00:11:58;20.77;;;9.23;;
84288;SDS011;75147;50.294;18.660;2024-01-30T00:14:24;22.23;;;9.20;;
84288;SDS011;75147;50.294;18.660;2024-01-30T00:16:50;25.55;;;10.60;;
84288;SDS011;75147;50.294;18.660;2024-01-30T00:19:16;23.13;;;9.48;;
84288;SDS011;75147;50.294;18.660;2024-01-30T00:21:41;21.58;;;9.27;;
84288;SDS011;75147;50.294;18.660;2024-01-30T00:24:07;24.75;;;9.57;;
84288;SDS011;75147;50.294;18.660;2024-01-30T00:26:32;24.73;;;10.00;;
84288;SDS011;75147;50.294;18.660;2024-01-30T00:28:57;22.48;;;9.07;;
84288;SDS011;75147;50.294;18.660;2024-01-30T00:31:23;21.75;;;9.55;;
84288;SDS011;75147;50.294;18.660;2024-01-30T00:33:49;21.17;;;8.43;;
84288;SDS011;75147;50.294;18.660;2024-01-30T00:36:14;21.02;;;8.90;;
84288;SDS011;75147;50.294;18.660;2024-01-30T00:38:39;19.77;;;9.23;;
84288;SDS011;75147;50.294;18.660;2024-01-30T00:41:06;17.10;;;8.70;;
84288;SDS011;75147;50.294;18.660;2024-01-30T00:43:32;16.25;;;9.02;;
84288;SDS011;75147;50.294;18.660;2024-01-30T00:45:58;20.02;;;9.25;;
84288;SDS011;75147;50.294;18.660;2024-01-30T00:48:24;21.00;;;9.48;;
84288;SDS011;75147;50.294;18.660;2024-01-30T00:50:49;22.85;;;9.60;;
84288;SDS011;75147;50.294;18.660;2024-01-30T00:53:14;23.65;;;9.90;;
84288;SDS011;75147;50.294;18.660;2024-01-30T00:55:40;25.70;;;10.15;;
84288;SDS011;75147;50.294;18.660;2024-01-30T00:58:05;22.50;;;9.70;;
84288;SDS011;75147;50.294;18.660;2024-01-30T01:00:31;22.30;;;9.48;;
84288;SDS011;75147;50.294;18.660;2024-01-30T01:02:59;24.95;;;9.35;;
84288;SDS011;75147;50.294;18.660;2024-01-30T01:05:24;26.70;;;10.00;;
84288;SDS011;75147;50.294;18.660;2024-01-30T01:07:50;18.30;;;8.80;;
84288;SDS011;75147;50.294;18.660;2024-01-30T01:10:17;24.85;;;10.63;;
84288;SDS011;75147;50.294;18.660;2024-01-30T01:12:43;20.70;;;10.23;;
84288;SDS011;75147;50.294;18.660;2024-01-30T01:15:09;19.75;;;9.10;;
84288;SDS011;75147;50.294;18.660;2024-01-30T01:17:38;20.45;;;9.15;;
84288;SDS011;75147;50.294;18.660;2024-01-30T01:20:04;22.45;;;9.00;;
84288;SDS011;75147;50.294;18.660;2024-01-30T01:22:31;19.10;;;8.55;;
84288;SDS011;75147;50.294;18.660;2024-01-30T01:24:57;23.02;;;9.93;;
84288;SDS011;75147;50.294;18.660;2024-01-30T01:27:22;22.98;;;10.02;;
84288;SDS011;75147;50.294;18.660;2024-01-30T01:29:48;20.83;;;9.38;;
84288;SDS011;75147;50.294;18.660;2024-01-30T01:32:13;21.42;;;8.77;;
84288;SDS011;75147;50.294;18.660;2024-01-30T01:34:38;22.23;;;8.60;;
84288;SDS011;75147;50.294;18.660;2024-01-30T01:37:04;21.00;;;9.07;;
84288;SDS011;75147;50.294;18.660;2024-01-30T01:39:29;19.38;;;9.35;;
84288;SDS011;75147;50.294;18.660;2024-01-30T01:41:55;21.75;;;8.63;;
84288;SDS011;75147;50.294;18.660;2024-01-30T01:44:20;19.30;;;9.20;;
84288;SDS011;75147;50.294;18.660;2024-01-30T01:46:46;21.55;;;9.73;;
84288;SDS011;75147;50.294;18.660;2024-01-30T01:49:12;19.55;;;9.57;;
84288;SDS011;75147;50.294;18.660;2024-01-30T01:51:39;18.70;;;8.52;;
84288;SDS011;75147;50.294;18.660;2024-01-30T01:54:06;16.77;;;8.70;;
84288;SDS011;75147;50.294;18.660;2024-01-30T01:56:33;18.42;;;7.80;;
84288;SDS011;75147;50.294;18.660;2024-01-30T01:59:00;15.55;;;6.93;;
84288;SDS011;75147;50.294;18.660;2024-01-30T02:01:30;16.13;;;8.13;;
84288;SDS011;75147;50.294;18.660;2024-01-30T02:03:57;18.67;;;7.63;;
84288;SDS011;75147;50.294;18.660;2024-01-30T02:06:23;17.88;;;7.43;;
84288;SDS011;75147;50.294;18.660;2024-01-30T02:08:49;18.20;;;8.30;;
84288;SDS011;75147;50.294;18.660;2024-01-30T02:11:14;16.17;;;7.72;;
84288;SDS011;75147;50.294;18.660;2024-01-30T02:13:41;14.48;;;6.57;;
84288;SDS011;75147;50.294;18.660;2024-01-30T02:16:07;15.15;;;7.13;;
84288;SDS011;75147;50.294;18.660;2024-01-30T02:18:32;16.77;;;7.77;;
84288;SDS011;75147;50.294;18.660;2024-01-30T02:20:58;17.60;;;8.02;;
84288;SDS011;75147;50.294;18.660;2024-01-30T02:23:26;17.05;;;7.15;;
84288;SDS011;75147;50.294;18.660;2024-01-30T02:25:52;14.05;;;7.13;;
84288;SDS011;75147;50.294;18.660;2024-01-30T02:28:18;15.82;;;7.22;;
84288;SDS011;75147;50.294;18.660;2024-01-30T02:30:44;17.73;;;7.47;;
84288;SDS011;75147;50.294;18.660;2024-01-30T02:33:11;16.25;;;7.82;;
84288;SDS011;75147;50.294;18.660;2024-01-30T02:35:36;13.05;;;6.80;;
84288;SDS011;75147;50.294;18.660;2024-01-30T02:38:01;13.40;;;6.72;;
84288;SDS011;75147;50.294;18.660;2024-01-30T02:40:27;17.02;;;7.47;;
84288;SDS011;75147;50.294;18.660;2024-01-30T02:42:52;10.35;;;6.05;;
84288;SDS011;75147;50.294;18.660;2024-01-30T02:45:18;14.25;;;7.13;;
84288;SDS011;75147;50.294;18.660;2024-01-30T02:47:43;13.65;;;6.40;;
84288;SDS011;75147;50.294;18.660;2024-01-30T02:50:09;12.90;;;6.82;;
84288;SDS011;75147;50.294;18.660;2024-01-30T02:52:35;14.45;;;6.93;;
84288;SDS011;75147;50.294;18.660;2024-01-30T02:55:00;14.65;;;6.25;;
84288;SDS011;75147;50.294;18.660;2024-01-30T02:57:27;14.50;;;6.85;;
84288;SDS011;75147;50.294;18.660;2024-01-30T02:59:52;11.95;;;6.07;;
84288;SDS011;75147;50.294;18.660;2024-01-30T03:02:18;12.88;;;6.50;;
84288;SDS011;75147;50.294;18.660;2024-01-30T03:04:43;13.57;;;5.97;;
84288;SDS011;75147;50.294;18.660;2024-01-30T03:07:09;14.90;;;6.80;;
84288;SDS011;75147;50.294;18.660;2024-01-30T03:09:34;11.05;;;6.05;;
84288;SDS011;75147;50.294;18.660;2024-01-30T03:12:01;11.45;;;6.07;;
84288;SDS011;75147;50.294;18.660;2024-01-30T03:14:26;12.82;;;6.68;;
84288;SDS011;75147;50.294;18.660;2024-01-30T03:16:52;15.57;;;6.15;;
84288;SDS011;75147;50.294;18.660;2024-01-30T03:19:17;13.10;;;5.85;;
84288;SDS011;75147;50.294;18.660;2024-01-30T03:21:43;12.60;;;5.45;;
84288;SDS011;75147;50.294;18.660;2024-01-30T03:24:09;10.82;;;5.65;;
84288;SDS011;75147;50.294;18.660;2024-01-30T03:26:34;12.10;;;5.85;;
84288;SDS011;75147;50.294;18.660;2024-01-30T03:29:00;10.43;;;5.57;;
84288;SDS011;75147;50.294;18.660;2024-01-30T03:31:25;11.27;;;5.47;;
84288;SDS011;75147;50.294;18.660;2024-01-30T03:33:51;11.02;;;5.55;;
84288;SDS011;75147;50.294;18.660;2024-01-30T03:36:16;11.88;;;6.00;;
84288;SDS011;75147;50.294;18.660;2024-01-30T03:38:42;9.65;;;5.22;;
84288;SDS011;75147;50.294;18.660;2024-01-30T03:41:07;10.80;;;5.57;;
84288;SDS011;75147;50.294;18.660;2024-01-30T03:43:34;9.40;;;5.45;;
84288;SDS011;75147;50.294;18.660;2024-01-30T03:45:59;10.25;;;6.05;;
84288;SDS011;75147;50.294;18.660;2024-01-30T03:48:26;10.75;;;5.65;;
84288;SDS011;75147;50.294;18.660;2024-01-30T03:50:51;14.32;;;6.13;;
84288;SDS011;75147;50.294;18.660;2024-01-30T03:53:17;10.70;;;5.87;;
84288;SDS011;75147;50.294;18.660;2024-01-30T03:55:42;9.40;;;4.75;;
84288;SDS011;75147;50.294;18.660;2024-01-30T03:58:07;9.75;;;5.03;;
84288;SDS011;75147;50.294;18.660;2024-01-30T04:00:33;9.52;;;4.85;;
84288;SDS011;75147;50.294;18.660;2024-01-30T04:02:58;10.75;;;5.47;;
84288;SDS011;75147;50.294;18.660;2024-01-30T04:05:23;10.68;;;5.40;;
84288;SDS011;75147;50.294;18.660;2024-01-30T04:07:49;10.05;;;5.22;;
84288;SDS011;75147;50.294;18.660;2024-01-30T04:10:14;11.07;;;5.85;;
84288;SDS011;75147;50.294;18.660;2024-01-30T04:12:40;11.80;;;6.57;;
84288;SDS011;75147;50.294;18.660;2024-01-30T04:15:05;18.92;;;7.93;;
84288;SDS011;75147;50.294;18.660;2024-01-30T04:17:31;18.90;;;6.85;;
84288;SDS011;75147;50.294;18.660;2024-01-30T04:19:56;13.48;;;6.18;;
84288;SDS011;75147;50.294;18.660;2024-01-30T04:22:21;12.87;;;5.77;;
84288;SDS011;75147;50.294;18.660;2024-01-30T04:24:47;12.52;;;5.55;;
84288;SDS011;75147;50.294;18.660;2024-01-30T04:27:12;9.00;;;4.87;;
84288;SDS011;75147;50.294;18.660;2024-01-30T04:29:38;10.27;;;5.40;;
84288;SDS011;75147;50.294;18.660;2024-01-30T04:32:03;12.60;;;5.47;;
84288;SDS011;75147;50.294;18.660;2024-01-30T04:34:29;11.25;;;5.50;;
84288;SDS011;75147;50.294;18.660;2024-01-30T04:36:54;13.30;;;5.97;;
84288;SDS011;75147;50.294;18.660;2024-01-30T04:39:20;9.70;;;4.68;;
84288;SDS011;75147;50.294;18.660;2024-01-30T04:41:45;10.88;;;5.65;;
84288;SDS011;75147;50.294;18.660;2024-01-30T04:44:10;10.05;;;5.15;;
84288;SDS011;75147;50.294;18.660;2024-01-30T04:46:36;13.90;;;5.78;;
84288;SDS011;75147;50.294;18.660;2024-01-30T04:49:01;11.25;;;5.15;;
84288;SDS011;75147;50.294;18.660;2024-01-30T04:51:28;14.05;;;6.13;;
84288;SDS011;75147;50.294;18.660;2024-01-30T04:53:54;15.73;;;6.93;;
84288;SDS011;75147;50.294;18.660;2024-01-30T04:56:22;15.07;;;6.00;;
84288;SDS011;75147;50.294;18.660;2024-01-30T04:58:48;12.48;;;6.18;;
84288;SDS011;75147;50.294;18.660;2024-01-30T05:01:17;10.95;;;5.50;;
84288;SDS011;75147;50.294;18.660;2024-01-30T05:03:42;12.27;;;5.93;;
84288;SDS011;75147;50.294;18.660;2024-01-30T05:06:09;10.55;;;5.88;;
84288;SDS011;75147;50.294;18.660;2024-01-30T05:08:34;13.98;;;6.65;;
84288;SDS011;75147;50.294;18.660;2024-01-30T05:11:04;14.57;;;7.07;;
84288;SDS011;75147;50.294;18.660;2024-01-30T05:13:31;14.27;;;6.88;;
84288;SDS011;75147;50.294;18.660;2024-01-30T05:15:57;10.85;;;5.72;;
84288;SDS011;75147;50.294;18.660;2024-01-30T05:18:22;12.25;;;6.25;;
84288;SDS011;75147;50.294;18.660;2024-01-30T05:20:51;12.25;;;6.13;;
84288;SDS011;75147;50.294;18.660;2024-01-30T05:23:17;11.10;;;5.70;;
84288;SDS011;75147;50.294;18.660;2024-01-30T05:25:43;14.38;;;6.50;;
84288;SDS011;75147;50.294;18.660;2024-01-30T05:28:08;12.00;;;5.80;;
84288;SDS011;75147;50.294;18.660;2024-01-30T05:30:34;13.20;;;5.88;;
84288;SDS011;75147;50.294;18.660;2024-01-30T05:33:00;11.68;;;5.95;;
84288;SDS011;75147;50.294;18.660;2024-01-30T05:35:25;9.48;;;4.70;;
84288;SDS011;75147;50.294;18.660;2024-01-30T05:37:51;12.53;;;5.30;;
84288;SDS011;75147;50.294;18.660;2024-01-30T05:40:19;14.13;;;6.13;;
84288;SDS011;75147;50.294;18.660;2024-01-30T05:42:44;12.73;;;6.15;;
84288;SDS011;75147;50.294;18.660;2024-01-30T05:45:10;14.63;;;5.85;;
84288;SDS011;75147;50.294;18.660;2024-01-30T05:47:36;12.23;;;5.90;;
84288;SDS011;75147;50.294;18.660;2024-01-30T05:50:01;13.65;;;6.18;;
84288;SDS011;75147;50.294;18.660;2024-01-30T05:52:27;12.75;;;6.13;;
84288;SDS011;75147;50.294;18.660;2024-01-30T05:54:52;17.15;;;6.18;;
84288;SDS011;75147;50.294;18.660;2024-01-30T05:57:17;17.80;;;6.57;;
84288;SDS011;75147;50.294;18.660;2024-01-30T05:59:44;13.80;;;6.80;;
84288;SDS011;75147;50.294;18.660;2024-01-30T06:02:10;14.27;;;6.22;;
84288;SDS011;75147;50.294;18.660;2024-01-30T06:04:36;13.05;;;6.78;;
84288;SDS011;75147;50.294;18.660;2024-01-30T06:07:01;9.68;;;5.38;;
84288;SDS011;75147;50.294;18.660;2024-01-30T06:09:27;14.75;;;6.93;;
84288;SDS011;75147;50.294;18.660;2024-01-30T06:11:53;10.90;;;5.50;;
84288;SDS011;75147;50.294;18.660;2024-01-30T06:14:18;10.85;;;5.93;;
84288;SDS011;75147;50.294;18.660;2024-01-30T06:16:44;14.13;;;5.93;;
84288;SDS011;75147;50.294;18.660;2024-01-30T06:19:09;15.10;;;6.57;;
84288;SDS011;75147;50.294;18.660;2024-01-30T06:21:36;12.05;;;5.63;;
84288;SDS011;75147;50.294;18.660;2024-01-30T06:24:02;14.35;;;5.90;;
84288;SDS011;75147;50.294;18.660;2024-01-30T06:26:27;12.25;;;5.95;;
84288;SDS011;75147;50.294;18.660;2024-01-30T06:28:53;11.20;;;5.97;;
84288;SDS011;75147;50.294;18.660;2024-01-30T06:31:18;14.35;;;5.80;;
84288;SDS011;75147;50.294;18.660;2024-01-30T06:33:46;15.85;;;7.32;;
84288;SDS011;75147;50.294;18.660;2024-01-30T06:36:12;13.23;;;6.97;;
84288;SDS011;75147;50.294;18.660;2024-01-30T06:38:37;11.05;;;6.18;;
84288;SDS011;75147;50.294;18.660;2024-01-30T06:41:02;15.48;;;7.53;;
84288;SDS011;75147;50.294;18.660;2024-01-30T06:43:28;15.15;;;7.90;;
84288;SDS011;75147;50.294;18.660;2024-01-30T06:45:54;12.30;;;6.88;;
84288;SDS011;75147;50.294;18.660;2024-01-30T06:48:19;11.85;;;6.70;;
84288;SDS011;75147;50.294;18.660;2024-01-30T06:50:44;12.80;;;7.23;;
84288;SDS011;75147;50.294;18.660;2024-01-30T06:53:10;12.52;;;6.40;;
84288;SDS011;75147;50.294;18.660;2024-01-30T06:55:36;11.25;;;6.78;;
84288;SDS011;75147;50.294;18.660;2024-01-30T06:58:01;15.63;;;6.87;;
84288;SDS011;75147;50.294;18.660;2024-01-30T07:00:26;11.02;;;6.15;;
84288;SDS011;75147;50.294;18.660;2024-01-30T07:02:52;12.95;;;6.05;;
84288;SDS011;75147;50.294;18.660;2024-01-30T07:05:17;12.38;;;6.63;;
84288;SDS011;75147;50.294;18.660;2024-01-30T07:07:42;11.25;;;5.90;;
84288;SDS011;75147;50.294;18.660;2024-01-30T07:10:08;18.13;;;8.02;;
84288;SDS011;75147;50.294;18.660;2024-01-30T07:12:34;15.98;;;8.48;;
84288;SDS011;75147;50.294;18.660;2024-01-30T07:14:59;17.67;;;7.65;;
84288;SDS011;75147;50.294;18.660;2024-01-30T07:17:24;24.23;;;10.82;;
84288;SDS011;75147;50.294;18.660;2024-01-30T07:19:50;15.13;;;7.32;;
84288;SDS011;75147;50.294;18.660;2024-01-30T07:22:15;16.52;;;8.27;;
84288;SDS011;75147;50.294;18.660;2024-01-30T07:24:44;16.25;;;8.15;;
84288;SDS011;75147;50.294;18.660;2024-01-30T07:27:12;15.27;;;8.05;;
84288;SDS011;75147;50.294;18.660;2024-01-30T07:29:38;17.55;;;7.97;;
84288;SDS011;75147;50.294;18.660;2024-01-30T07:32:03;18.35;;;7.65;;
84288;SDS011;75147;50.294;18.660;2024-01-30T07:34:29;16.83;;;7.60;;
84288;SDS011;75147;50.294;18.660;2024-01-30T07:36:54;15.03;;;6.57;;
84288;SDS011;75147;50.294;18.660;2024-01-30T07:39:19;15.73;;;6.18;;
84288;SDS011;75147;50.294;18.660;2024-01-30T07:41:45;12.55;;;6.13;;
84288;SDS011;75147;50.294;18.660;2024-01-30T07:44:11;12.18;;;5.35;;
84288;SDS011;75147;50.294;18.660;2024-01-30T07:46:36;15.20;;;6.55;;
84288;SDS011;75147;50.294;18.660;2024-01-30T07:49:02;11.60;;;6.05;;
84288;SDS011;75147;50.294;18.660;2024-01-30T07:51:27;9.88;;;5.22;;
84288;SDS011;75147;50.294;18.660;2024-01-30T07:53:54;13.20;;;5.82;;
84288;SDS011;75147;50.294;18.660;2024-01-30T07:56:20;11.23;;;5.93;;
84288;SDS011;75147;50.294;18.660;2024-01-30T07:58:45;12.25;;;5.47;;
84288;SDS011;75147;50.294;18.660;2024-01-30T08:01:11;14.07;;;6.55;;
84288;SDS011;75147;50.294;18.660;2024-01-30T08:03:36;11.65;;;5.95;;
84288;SDS011;75147;50.294;18.660;2024-01-30T08:06:02;12.20;;;5.43;;
84288;SDS011;75147;50.294;18.660;2024-01-30T08:08:28;11.45;;;5.75;;
84288;SDS011;75147;50.294;18.660;2024-01-30T08:10:53;12.10;;;5.85;;
84288;SDS011;75147;50.294;18.660;2024-01-30T08:13:19;11.13;;;5.90;;
84288;SDS011;75147;50.294;18.660;2024-01-30T08:15:44;11.75;;;5.53;;
84288;SDS011;75147;50.294;18.660;2024-01-30T08:18:09;11.25;;;5.32;;
84288;SDS011;75147;50.294;18.660;2024-01-30T08:20:35;9.23;;;5.30;;
84288;SDS011;75147;50.294;18.660;2024-01-30T08:23:00;9.77;;;4.40;;
84288;SDS011;75147;50.294;18.660;2024-01-30T08:25:26;11.10;;;4.70;;
84288;SDS011;75147;50.294;18.660;2024-01-30T08:27:51;12.48;;;5.28;;
84288;SDS011;75147;50.294;18.660;2024-01-30T08:30:16;9.98;;;4.88;;
84288;SDS011;75147;50.294;18.660;2024-01-30T08:32:42;11.38;;;5.00;;
84288;SDS011;75147;50.294;18.660;2024-01-30T08:35:07;10.57;;;4.90;;
84288;SDS011;75147;50.294;18.660;2024-01-30T08:37:33;8.50;;;4.22;;
84288;SDS011;75147;50.294;18.660;2024-01-30T08:39:59;9.63;;;5.00;;
84288;SDS011;75147;50.294;18.660;2024-01-30T08:42:24;9.45;;;5.28;;
84288;SDS011;75147;50.294;18.660;2024-01-30T08:44:50;9.40;;;3.92;;
84288;SDS011;75147;50.294;18.660;2024-01-30T08:47:17;10.55;;;5.30;;
84288;SDS011;75147;50.294;18.660;2024-01-30T08:49:43;10.40;;;5.60;;
84288;SDS011;75147;50.294;18.660;2024-01-30T08:52:09;10.38;;;4.93;;
84288;SDS011;75147;50.294;18.660;2024-01-30T08:54:37;9.85;;;5.43;;
84288;SDS011;75147;50.294;18.660;2024-01-30T08:57:03;12.52;;;5.13;;
84288;SDS011;75147;50.294;18.660;2024-01-30T08:59:29;10.15;;;4.97;;
84288;SDS011;75147;50.294;18.660;2024-01-30T09:01:54;10.13;;;5.78;;
84288;SDS011;75147;50.294;18.660;2024-01-30T09:04:20;8.70;;;4.65;;
84288;SDS011;75147;50.294;18.660;2024-01-30T09:06:47;11.07;;;4.70;;
84288;SDS011;75147;50.294;18.660;2024-01-30T09:09:13;10.07;;;4.82;;
84288;SDS011;75147;50.294;18.660;2024-01-30T09:11:39;10.30;;;5.32;;
84288;SDS011;75147;50.294;18.660;2024-01-30T09:14:05;9.38;;;4.97;;
84288;SDS011;75147;50.294;18.660;2024-01-30T09:16:30;10.10;;;4.38;;
84288;SDS011;75147;50.294;18.660;2024-01-30T09:18:56;10.03;;;5.40;;
84288;SDS011;75147;50.294;18.660;2024-01-30T09:21:21;9.85;;;5.28;;
84288;SDS011;75147;50.294;18.660;2024-01-30T09:23:46;10.65;;;5.13;;
84288;SDS011;75147;50.294;18.660;2024-01-30T09:26:12;12.23;;;5.35;;
84288;SDS011;75147;50.294;18.660;2024-01-30T09:28:37;12.10;;;4.50;;
84288;SDS011;75147;50.294;18.660;2024-01-30T09:31:03;14.07;;;5.55;;
84288;SDS011;75147;50.294;18.660;2024-01-30T09:33:29;10.73;;;4.78;;
84288;SDS011;75147;50.294;18.660;2024-01-30T09:35:54;7.68;;;4.22;;
84288;SDS011;75147;50.294;18.660;2024-01-30T09:38:22;12.05;;;5.55;;
84288;SDS011;75147;50.294;18.660;2024-01-30T09:40:49;15.75;;;5.82;;
84288;SDS011;75147;50.294;18.660;2024-01-30T09:43:23;10.88;;;5.03;;
84288;SDS011;75147;50.294;18.660;2024-01-30T09:45:52;10.50;;;5.07;;
84288;SDS011;75147;50.294;18.660;2024-01-30T09:50:44;8.13;;;4.53;;
84288;SDS011;75147;50.294;18.660;2024-01-30T09:53:10;9.77;;;4.55;;
84288;SDS011;75147;50.294;18.660;2024-01-30T09:55:38;10.30;;;4.90;;
84288;SDS011;75147;50.294;18.660;2024-01-30T09:58:07;8.07;;;4.72;;
84288;SDS011;75147;50.294;18.660;2024-01-30T10:00:33;11.57;;;4.65;;
84288;SDS011;75147;50.294;18.660;2024-01-30T10:02:58;9.05;;;5.20;;
84288;SDS011;75147;50.294;18.660;2024-01-30T10:05:25;18.65;;;5.18;;
84288;SDS011;75147;50.294;18.660;2024-01-30T10:07:55;9.65;;;4.80;;
84288;SDS011;75147;50.294;18.660;2024-01-30T10:10:22;18.20;;;6.65;;
84288;SDS011;75147;50.294;18.660;2024-01-30T10:12:48;6.38;;;3.75;;
84288;SDS011;75147;50.294;18.660;2024-01-30T10:15:14;14.00;;;5.38;;
84288;SDS011;75147;50.294;18.660;2024-01-30T10:17:39;7.20;;;4.18;;
84288;SDS011;75147;50.294;18.660;2024-01-30T10:20:05;8.30;;;4.60;;
84288;SDS011;75147;50.294;18.660;2024-01-30T10:22:32;16.08;;;5.47;;
84288;SDS011;75147;50.294;18.660;2024-01-30T10:24:58;11.85;;;5.43;;
84288;SDS011;75147;50.294;18.660;2024-01-30T10:27:25;22.98;;;6.15;;
84288;SDS011;75147;50.294;18.660;2024-01-30T10:29:52;12.68;;;5.50;;
84288;SDS011;75147;50.294;18.660;2024-01-30T10:32:17;22.38;;;4.88;;
84288;SDS011;75147;50.294;18.660;2024-01-30T10:34:43;26.55;;;5.97;;
84288;SDS011;75147;50.294;18.660;2024-01-30T10:37:11;17.15;;;5.68;;
84288;SDS011;75147;50.294;18.660;2024-01-30T10:39:46;10.00;;;4.65;;
84288;SDS011;75147;50.294;18.660;2024-01-30T10:42:15;26.95;;;6.60;;
84288;SDS011;75147;50.294;18.660;2024-01-30T10:47:21;10.75;;;4.65;;
84288;SDS011;75147;50.294;18.660;2024-01-30T10:49:51;9.52;;;4.97;;
84288;SDS011;75147;50.294;18.660;2024-01-30T10:52:17;10.77;;;6.22;;
84288;SDS011;75147;50.294;18.660;2024-01-30T10:54:44;9.35;;;4.78;;
84288;SDS011;75147;50.294;18.660;2024-01-30T10:57:09;9.38;;;5.50;;
84288;SDS011;75147;50.294;18.660;2024-01-30T10:59:36;9.05;;;5.13;;
84288;SDS011;75147;50.294;18.660;2024-01-30T11:02:02;10.55;;;4.63;;
84288;SDS011;75147;50.294;18.660;2024-01-30T11:04:35;9.07;;;4.68;;
84288;SDS011;75147;50.294;18.660;2024-01-30T11:07:02;7.68;;;4.78;;
84288;SDS011;75147;50.294;18.660;2024-01-30T11:09:29;12.35;;;5.22;;
84288;SDS011;75147;50.294;18.660;2024-01-30T11:11:58;11.88;;;4.97;;
84288;SDS011;75147;50.294;18.660;2024-01-30T11:14:27;8.32;;;4.47;;
84288;SDS011;75147;50.294;18.660;2024-01-30T11:16:56;10.82;;;5.25;;
84288;SDS011;75147;50.294;18.660;2024-01-30T11:19:24;11.48;;;4.40;;
84288;SDS011;75147;50.294;18.660;2024-01-30T11:21:53;12.85;;;5.55;;
84288;SDS011;75147;50.294;18.660;2024-01-30T11:24:22;8.90;;;4.30;;
84288;SDS011;75147;50.294;18.660;2024-01-30T11:26:58;12.30;;;5.38;;
84288;SDS011;75147;50.294;18.660;2024-01-30T11:29:24;10.55;;;4.78;;
84288;SDS011;75147;50.294;18.660;2024-01-30T11:31:54;6.97;;;3.90;;
84288;SDS011;75147;50.294;18.660;2024-01-30T11:34:21;10.40;;;5.57;;
84288;SDS011;75147;50.294;18.660;2024-01-30T11:36:54;13.15;;;5.03;;
84288;SDS011;75147;50.294;18.660;2024-01-30T11:39:24;9.95;;;4.85;;
84288;SDS011;75147;50.294;18.660;2024-01-30T11:41:54;9.98;;;4.30;;
84288;SDS011;75147;50.294;18.660;2024-01-30T11:44:20;12.88;;;4.82;;
84288;SDS011;75147;50.294;18.660;2024-01-30T11:46:49;9.50;;;4.82;;
84288;SDS011;75147;50.294;18.660;2024-01-30T11:49:16;13.35;;;5.88;;
84288;SDS011;75147;50.294;18.660;2024-01-30T11:51:42;12.23;;;5.07;;
84288;SDS011;75147;50.294;18.660;2024-01-30T11:54:08;12.15;;;6.10;;
84288;SDS011;75147;50.294;18.660;2024-01-30T11:56:33;9.60;;;5.15;;
84288;SDS011;75147;50.294;18.660;2024-01-30T11:58:59;11.02;;;5.13;;
84288;SDS011;75147;50.294;18.660;2024-01-30T12:01:25;10.35;;;5.55;;
84288;SDS011;75147;50.294;18.660;2024-01-30T12:03:54;8.60;;;4.80;;
84288;SDS011;75147;50.294;18.660;2024-01-30T12:06:19;7.20;;;4.18;;
84288;SDS011;75147;50.294;18.660;2024-01-30T12:08:57;8.05;;;4.45;;
84288;SDS011;75147;50.294;18.660;2024-01-30T12:11:24;8.05;;;4.63;;
84288;SDS011;75147;50.294;18.660;2024-01-30T12:13:50;10.30;;;4.43;;
84288;SDS011;75147;50.294;18.660;2024-01-30T12:16:17;11.00;;;5.53;;
84288;SDS011;75147;50.294;18.660;2024-01-30T12:18:43;8.77;;;4.47;;
84288;SDS011;75147;50.294;18.660;2024-01-30T12:21:08;8.23;;;4.85;;
84288;SDS011;75147;50.294;18.660;2024-01-30T12:23:34;12.25;;;4.85;;
84288;SDS011;75147;50.294;18.660;2024-01-30T12:26:00;8.57;;;4.50;;
84288;SDS011;75147;50.294;18.660;2024-01-30T12:28:28;8.32;;;4.63;;
84288;SDS011;75147;50.294;18.660;2024-01-30T12:30:55;5.82;;;3.58;;
84288;SDS011;75147;50.294;18.660;2024-01-30T12:33:26;8.50;;;4.40;;
84288;SDS011;75147;50.294;18.660;2024-01-30T12:35:51;9.02;;;4.63;;
84288;SDS011;75147;50.294;18.660;2024-01-30T12:38:17;8.95;;;4.50;;
84288;SDS011;75147;50.294;18.660;2024-01-30T12:40:42;7.45;;;4.45;;
84288;SDS011;75147;50.294;18.660;2024-01-30T12:43:08;8.70;;;4.15;;
84288;SDS011;75147;50.294;18.660;2024-01-30T12:45:33;8.80;;;5.30;;
84288;SDS011;75147;50.294;18.660;2024-01-30T12:47:59;7.88;;;4.55;;
84288;SDS011;75147;50.294;18.660;2024-01-30T12:50:24;10.38;;;4.60;;
84288;SDS011;75147;50.294;18.660;2024-01-30T12:52:49;8.97;;;4.60;;
84288;SDS011;75147;50.294;18.660;2024-01-30T12:55:15;6.47;;;3.97;;
84288;SDS011;75147;50.294;18.660;2024-01-30T12:57:41;7.15;;;3.63;;
84288;SDS011;75147;50.294;18.660;2024-01-30T13:00:07;10.45;;;4.95;;
84288;SDS011;75147;50.294;18.660;2024-01-30T13:02:33;9.18;;;4.38;;
84288;SDS011;75147;50.294;18.660;2024-01-30T13:05:02;7.60;;;4.35;;
84288;SDS011;75147;50.294;18.660;2024-01-30T13:07:30;7.63;;;4.20;;
84288;SDS011;75147;50.294;18.660;2024-01-30T13:09:57;7.97;;;4.70;;
84288;SDS011;75147;50.294;18.660;2024-01-30T13:12:28;7.95;;;4.18;;
84288;SDS011;75147;50.294;18.660;2024-01-30T13:14:53;9.93;;;4.72;;
84288;SDS011;75147;50.294;18.660;2024-01-30T13:17:19;7.47;;;3.80;;
84288;SDS011;75147;50.294;18.660;2024-01-30T13:19:44;7.57;;;4.80;;
84288;SDS011;75147;50.294;18.660;2024-01-30T13:22:10;9.27;;;4.82;;
84288;SDS011;75147;50.294;18.660;2024-01-30T13:24:35;8.05;;;4.60;;
84288;SDS011;75147;50.294;18.660;2024-01-30T13:27:00;8.38;;;4.38;;
84288;SDS011;75147;50.294;18.660;2024-01-30T13:29:26;6.05;;;4.03;;
84288;SDS011;75147;50.294;18.660;2024-01-30T13:31:51;8.25;;;4.65;;
84288;SDS011;75147;50.294;18.660;2024-01-30T13:34:16;8.67;;;4.77;;
84288;SDS011;75147;50.294;18.660;2024-01-30T13:36:42;8.43;;;4.57;;
84288;SDS011;75147;50.294;18.660;2024-01-30T13:39:08;7.65;;;4.13;;
84288;SDS011;75147;50.294;18.660;2024-01-30T13:41:35;9.20;;;5.03;;
84288;SDS011;75147;50.294;18.660;2024-01-30T13:44:01;8.95;;;4.38;;
84288;SDS011;75147;50.294;18.660;2024-01-30T13:46:28;7.15;;;4.50;;
84288;SDS011;75147;50.294;18.660;2024-01-30T13:48:54;7.65;;;4.78;;
84288;SDS011;75147;50.294;18.660;2024-01-30T13:51:19;8.70;;;4.50;;
84288;SDS011;75147;50.294;18.660;2024-01-30T13:53:45;8.88;;;4.38;;
84288;SDS011;75147;50.294;18.660;2024-01-30T13:56:10;13.30;;;5.50;;
84288;SDS011;75147;50.294;18.660;2024-01-30T13:58:36;9.23;;;4.45;;
84288;SDS011;75147;50.294;18.660;2024-01-30T14:01:01;9.20;;;4.68;;
84288;SDS011;75147;50.294;18.660;2024-01-30T14:03:27;8.98;;;4.90;;
84288;SDS011;75147;50.294;18.660;2024-01-30T14:05:53;9.57;;;5.65;;
84288;SDS011;75147;50.294;18.660;2024-01-30T14:08:18;11.63;;;5.32;;
84288;SDS011;75147;50.294;18.660;2024-01-30T14:10:46;7.47;;;4.47;;
84288;SDS011;75147;50.294;18.660;2024-01-30T14:13:14;9.43;;;5.18;;
84288;SDS011;75147;50.294;18.660;2024-01-30T14:15:40;10.43;;;4.93;;
84288;SDS011;75147;50.294;18.660;2024-01-30T14:18:05;8.88;;;4.60;;
84288;SDS011;75147;50.294;18.660;2024-01-30T14:20:33;9.77;;;4.85;;
84288;SDS011;75147;50.294;18.660;2024-01-30T14:22:58;7.75;;;4.50;;